Terminal Aerodrome Forecast
Issued by NWS Pocatello, ID

Home | Current Version | Previous Version | Text Only | Print | Product List | Glossary On
Versions: 1 2 3 4 5 6 7 8 9 10 11 12 13 14
000
FTUS45 KPIH 031700
TAFBYI
TAF
KBYI 031721Z 0318/0418 28012G22KT 2SM -SN BR SCT010 BKN020
      TEMPO 0318/0319 1/4SM SN FZFG BKN008
     FM031900 26010KT P6SM VCSH SCT020 BKN040
     FM040200 VRB06KT P6SM SCT040 BKN070
     FM041200 VRB06KT 6SM BR BKN020 OVC040=

USA.gov is the U.S. government's official web portal to all federal, state and local government web resources and services.